sensor_id;sensor_type;location;lat;lon;timestamp;temperature;humidity
43665;DHT22;29263;48.172;11.484;2023-06-04T00:00:06;13.50;99.90
43665;DHT22;29263;48.172;11.484;2023-06-04T00:02:32;13.40;99.90
43665;DHT22;29263;48.172;11.484;2023-06-04T00:04:58;13.40;99.90
43665;DHT22;29263;48.172;11.484;2023-06-04T00:07:24;13.40;99.90
43665;DHT22;29263;48.172;11.484;2023-06-04T00:09:49;13.30;99.90
43665;DHT22;29263;48.172;11.484;2023-06-04T00:12:15;13.30;99.90
43665;DHT22;29263;48.172;11.484;2023-06-04T00:14:41;13.30;99.90
43665;DHT22;29263;48.172;11.484;2023-06-04T00:17:08;13.30;99.90
43665;DHT22;29263;48.172;11.484;2023-06-04T00:19:34;13.20;99.90
43665;DHT22;29263;48.172;11.484;2023-06-04T00:22:00;13.20;99.90
43665;DHT22;29263;48.172;11.484;2023-06-04T00:24:25;13.20;99.90
43665;DHT22;29263;48.172;11.484;2023-06-04T00:26:51;13.20;99.90
43665;DHT22;29263;48.172;11.484;2023-06-04T00:29:17;13.10;99.90
43665;DHT22;29263;48.172;11.484;2023-06-04T00:31:42;13.20;99.90
43665;DHT22;29263;48.172;11.484;2023-06-04T00:34:08;13.20;99.90
43665;DHT22;29263;48.172;11.484;2023-06-04T00:36:35;13.20;99.90
43665;DHT22;29263;48.172;11.484;2023-06-04T00:39:01;13.20;99.90
43665;DHT22;29263;48.172;11.484;2023-06-04T00:41:27;13.20;99.90
43665;DHT22;29263;48.172;11.484;2023-06-04T00:43:54;13.20;99.90
43665;DHT22;29263;48.172;11.484;2023-06-04T00:46:24;13.20;99.90
43665;DHT22;29263;48.172;11.484;2023-06-04T00:48:51;13.10;99.90
43665;DHT22;29263;48.172;11.484;2023-06-04T00:51:16;13.10;99.90
43665;DHT22;29263;48.172;11.484;2023-06-04T00:53:42;13.10;99.90
43665;DHT22;29263;48.172;11.484;2023-06-04T00:56:08;13.10;99.90
43665;DHT22;29263;48.172;11.484;2023-06-04T00:58:38;13.10;99.90
43665;DHT22;29263;48.172;11.484;2023-06-04T01:03:47;13.00;99.90
43665;DHT22;29263;48.172;11.484;2023-06-04T01:09:01;13.00;99.90
43665;DHT22;29263;48.172;11.484;2023-06-04T01:11:36;12.90;99.90
43665;DHT22;29263;48.172;11.484;2023-06-04T01:14:03;13.00;99.90
43665;DHT22;29263;48.172;11.484;2023-06-04T01:16:34;12.90;99.90
43665;DHT22;29263;48.172;11.484;2023-06-04T01:19:02;12.90;99.90
43665;DHT22;29263;48.172;11.484;2023-06-04T01:21:32;12.90;99.90
43665;DHT22;29263;48.172;11.484;2023-06-04T01:24:01;12.90;99.90
43665;DHT22;29263;48.172;11.484;2023-06-04T01:26:31;12.80;99.90
43665;DHT22;29263;48.172;11.484;2023-06-04T01:28:58;12.80;99.90
43665;DHT22;29263;48.172;11.484;2023-06-04T01:31:25;12.70;99.90
43665;DHT22;29263;48.172;11.484;2023-06-04T01:33:54;12.70;99.90
43665;DHT22;29263;48.172;11.484;2023-06-04T01:36:21;12.60;99.90
43665;DHT22;29263;48.172;11.484;2023-06-04T01:38:47;12.60;99.90
43665;DHT22;29263;48.172;11.484;2023-06-04T01:41:12;12.60;99.90
43665;DHT22;29263;48.172;11.484;2023-06-04T01:43:38;12.60;99.90
43665;DHT22;29263;48.172;11.484;2023-06-04T01:46:04;12.50;99.90
43665;DHT22;29263;48.172;11.484;2023-06-04T01:48:30;12.60;99.90
43665;DHT22;29263;48.172;11.484;2023-06-04T01:50:57;12.50;99.90
43665;DHT22;29263;48.172;11.484;2023-06-04T01:53:23;12.50;99.90
43665;DHT22;29263;48.172;11.484;2023-06-04T01:55:48;12.50;99.90
43665;DHT22;29263;48.172;11.484;2023-06-04T01:58:18;12.40;99.90
43665;DHT22;29263;48.172;11.484;2023-06-04T02:00:49;12.40;99.90
43665;DHT22;29263;48.172;11.484;2023-06-04T02:03:15;12.40;99.90
43665;DHT22;29263;48.172;11.484;2023-06-04T02:05:41;12.40;99.90
43665;DHT22;29263;48.172;11.484;2023-06-04T02:08:14;12.30;99.90
43665;DHT22;29263;48.172;11.484;2023-06-04T02:10:46;12.20;99.90
43665;DHT22;29263;48.172;11.484;2023-06-04T02:13:12;12.10;99.90
43665;DHT22;29263;48.172;11.484;2023-06-04T02:15:38;12.00;99.90
43665;DHT22;29263;48.172;11.484;2023-06-04T02:18:17;11.90;99.90
43665;DHT22;29263;48.172;11.484;2023-06-04T02:20:46;11.90;99.90
43665;DHT22;29263;48.172;11.484;2023-06-04T02:23:13;11.90;99.90
43665;DHT22;29263;48.172;11.484;2023-06-04T02:25:40;11.90;99.90
43665;DHT22;29263;48.172;11.484;2023-06-04T02:28:06;11.90;99.90
43665;DHT22;29263;48.172;11.484;2023-06-04T02:30:32;11.80;99.90
43665;DHT22;29263;48.172;11.484;2023-06-04T02:32:58;11.80;99.90
43665;DHT22;29263;48.172;11.484;2023-06-04T02:35:27;11.70;99.90
43665;DHT22;29263;48.172;11.484;2023-06-04T02:37:53;11.70;99.90
43665;DHT22;29263;48.172;11.484;2023-06-04T02:40:18;11.60;99.90
43665;DHT22;29263;48.172;11.484;2023-06-04T02:42:44;11.60;99.90
43665;DHT22;29263;48.172;11.484;2023-06-04T02:45:10;11.60;99.90
43665;DHT22;29263;48.172;11.484;2023-06-04T02:47:36;11.50;99.90
43665;DHT22;29263;48.172;11.484;2023-06-04T02:50:02;11.40;99.90
43665;DHT22;29263;48.172;11.484;2023-06-04T02:52:28;11.40;99.90
43665;DHT22;29263;48.172;11.484;2023-06-04T02:54:55;11.40;99.90
43665;DHT22;29263;48.172;11.484;2023-06-04T02:57:21;11.30;99.90
43665;DHT22;29263;48.172;11.484;2023-06-04T02:59:47;11.30;99.90
43665;DHT22;29263;48.172;11.484;2023-06-04T03:02:12;11.30;99.90
43665;DHT22;29263;48.172;11.484;2023-06-04T03:04:40;11.30;99.90
43665;DHT22;29263;48.172;11.484;2023-06-04T03:07:07;11.30;99.90
43665;DHT22;29263;48.172;11.484;2023-06-04T03:09:33;11.20;99.90
43665;DHT22;29263;48.172;11.484;2023-06-04T03:12:03;11.20;99.90
43665;DHT22;29263;48.172;11.484;2023-06-04T03:14:29;11.10;99.90
43665;DHT22;29263;48.172;11.484;2023-06-04T03:16:58;11.10;99.90
43665;DHT22;29263;48.172;11.484;2023-06-04T03:19:27;11.10;99.90
43665;DHT22;29263;48.172;11.484;2023-06-04T03:21:53;11.10;99.90
43665;DHT22;29263;48.172;11.484;2023-06-04T03:24:19;11.10;99.90
43665;DHT22;29263;48.172;11.484;2023-06-04T03:26:44;11.10;99.90
43665;DHT22;29263;48.172;11.484;2023-06-04T03:29:10;11.10;99.90
43665;DHT22;29263;48.172;11.484;2023-06-04T03:31:37;11.00;99.90
43665;DHT22;29263;48.172;11.484;2023-06-04T03:34:02;11.00;99.90
43665;DHT22;29263;48.172;11.484;2023-06-04T03:36:30;10.90;99.90
43665;DHT22;29263;48.172;11.484;2023-06-04T03:38:58;11.00;99.90
43665;DHT22;29263;48.172;11.484;2023-06-04T03:41:23;11.00;99.90
43665;DHT22;29263;48.172;11.484;2023-06-04T03:43:51;11.00;99.90
43665;DHT22;29263;48.172;11.484;2023-06-04T03:46:17;11.00;99.90
43665;DHT22;29263;48.172;11.484;2023-06-04T03:48:43;11.00;99.90
43665;DHT22;29263;48.172;11.484;2023-06-04T03:51:11;11.00;99.90
43665;DHT22;29263;48.172;11.484;2023-06-04T03:53:36;10.90;99.90
43665;DHT22;29263;48.172;11.484;2023-06-04T03:56:02;10.90;99.90
43665;DHT22;29263;48.172;11.484;2023-06-04T03:58:27;10.90;99.90
43665;DHT22;29263;48.172;11.484;2023-06-04T04:00:54;10.90;99.90
43665;DHT22;29263;48.172;11.484;2023-06-04T04:03:20;10.80;99.90
43665;DHT22;29263;48.172;11.484;2023-06-04T04:05:45;10.90;99.90
43665;DHT22;29263;48.172;11.484;2023-06-04T04:08:11;10.90;99.90
43665;DHT22;29263;48.172;11.484;2023-06-04T04:10:37;11.00;99.90
43665;DHT22;29263;48.172;11.484;2023-06-04T04:13:02;11.00;99.90
43665;DHT22;29263;48.172;11.484;2023-06-04T04:15:28;11.00;99.90
43665;DHT22;29263;48.172;11.484;2023-06-04T04:17:55;11.00;99.90
43665;DHT22;29263;48.172;11.484;2023-06-04T04:20:20;11.10;99.90
43665;DHT22;29263;48.172;11.484;2023-06-04T04:22:46;11.10;99.90
43665;DHT22;29263;48.172;11.484;2023-06-04T04:25:12;11.10;99.90
43665;DHT22;29263;48.172;11.484;2023-06-04T04:27:37;11.10;99.90
43665;DHT22;29263;48.172;11.484;2023-06-04T04:30:09;11.10;99.90
43665;DHT22;29263;48.172;11.484;2023-06-04T04:32:35;11.20;99.90
43665;DHT22;29263;48.172;11.484;2023-06-04T04:35:04;11.20;99.90
43665;DHT22;29263;48.172;11.484;2023-06-04T04:37:29;11.30;99.90
43665;DHT22;29263;48.172;11.484;2023-06-04T04:39:55;11.40;99.90
43665;DHT22;29263;48.172;11.484;2023-06-04T04:42:21;11.40;99.90
43665;DHT22;29263;48.172;11.484;2023-06-04T04:44:47;11.50;99.90
43665;DHT22;29263;48.172;11.484;2023-06-04T04:47:15;11.50;99.90
43665;DHT22;29263;48.172;11.484;2023-06-04T04:49:41;11.60;99.90
43665;DHT22;29263;48.172;11.484;2023-06-04T04:52:06;11.60;99.90
43665;DHT22;29263;48.172;11.484;2023-06-04T04:54:32;11.70;99.90
43665;DHT22;29263;48.172;11.484;2023-06-04T04:56:57;11.80;99.90
43665;DHT22;29263;48.172;11.484;2023-06-04T04:59:23;11.90;99.90
43665;DHT22;29263;48.172;11.484;2023-06-04T05:01:48;11.90;99.90
43665;DHT22;29263;48.172;11.484;2023-06-04T05:04:14;12.00;99.90
43665;DHT22;29263;48.172;11.484;2023-06-04T05:06:40;12.20;99.90
43665;DHT22;29263;48.172;11.484;2023-06-04T05:09:05;12.20;99.90
43665;DHT22;29263;48.172;11.484;2023-06-04T05:11:32;12.30;99.90
43665;DHT22;29263;48.172;11.484;2023-06-04T05:13:58;12.40;99.90
43665;DHT22;29263;48.172;11.484;2023-06-04T05:16:24;12.50;99.90
43665;DHT22;29263;48.172;11.484;2023-06-04T05:18:50;12.60;99.90
43665;DHT22;29263;48.172;11.484;2023-06-04T05:21:17;12.70;99.90
43665;DHT22;29263;48.172;11.484;2023-06-04T05:23:43;12.80;99.90
43665;DHT22;29263;48.172;11.484;2023-06-04T05:26:13;12.90;99.90
43665;DHT22;29263;48.172;11.484;2023-06-04T05:28:39;13.10;99.90
43665;DHT22;29263;48.172;11.484;2023-06-04T05:31:09;13.20;99.90
43665;DHT22;29263;48.172;11.484;2023-06-04T05:33:35;13.30;99.90
43665;DHT22;29263;48.172;11.484;2023-06-04T05:36:00;13.50;98.50
43665;DHT22;29263;48.172;11.484;2023-06-04T05:38:26;13.60;98.50
43665;DHT22;29263;48.172;11.484;2023-06-04T05:40:53;13.80;97.40
43665;DHT22;29263;48.172;11.484;2023-06-04T05:43:20;13.90;94.40
43665;DHT22;29263;48.172;11.484;2023-06-04T05:45:45;14.10;94.50
43665;DHT22;29263;48.172;11.484;2023-06-04T05:48:12;14.20;93.50
43665;DHT22;29263;48.172;11.484;2023-06-04T05:50:37;14.40;91.90
43665;DHT22;29263;48.172;11.484;2023-06-04T05:53:03;14.60;90.20
43665;DHT22;29263;48.172;11.484;2023-06-04T05:55:28;14.70;85.00
43665;DHT22;29263;48.172;11.484;2023-06-04T05:57:55;14.90;85.50
43665;DHT22;29263;48.172;11.484;2023-06-04T06:00:21;15.00;83.90
43665;DHT22;29263;48.172;11.484;2023-06-04T06:02:47;15.10;81.50
43665;DHT22;29263;48.172;11.484;2023-06-04T06:05:15;15.30;79.10
43665;DHT22;29263;48.172;11.484;2023-06-04T06:07:41;15.40;73.70
43665;DHT22;29263;48.172;11.484;2023-06-04T06:10:07;15.50;73.70
43665;DHT22;29263;48.172;11.484;2023-06-04T06:12:33;15.70;75.00
43665;DHT22;29263;48.172;11.484;2023-06-04T06:14:59;15.90;73.30
43665;DHT22;29263;48.172;11.484;2023-06-04T06:17:25;16.00;71.80
43665;DHT22;29263;48.172;11.484;2023-06-04T06:19:51;16.20;70.90
43665;DHT22;29263;48.172;11.484;2023-06-04T06:22:17;16.30;68.00
43665;DHT22;29263;48.172;11.484;2023-06-04T06:24:43;16.30;67.60
43665;DHT22;29263;48.172;11.484;2023-06-04T06:27:10;16.40;66.40
43665;DHT22;29263;48.172;11.484;2023-06-04T06:29:36;16.50;64.20
43665;DHT22;29263;48.172;11.484;2023-06-04T06:32:02;16.60;62.90
43665;DHT22;29263;48.172;11.484;2023-06-04T06:34:28;16.60;63.40
43665;DHT22;29263;48.172;11.484;2023-06-04T06:36:54;16.70;63.80
43665;DHT22;29263;48.172;11.484;2023-06-04T06:39:19;16.90;64.20
43665;DHT22;29263;48.172;11.484;2023-06-04T06:41:45;17.00;62.60
43665;DHT22;29263;48.172;11.484;2023-06-04T06:44:11;17.20;62.80
43665;DHT22;29263;48.172;11.484;2023-06-04T06:46:37;17.40;61.40
43665;DHT22;29263;48.172;11.484;2023-06-04T06:49:02;17.50;61.30
43665;DHT22;29263;48.172;11.484;2023-06-04T06:51:28;17.60;61.20
43665;DHT22;29263;48.172;11.484;2023-06-04T06:53:54;17.80;60.90
43665;DHT22;29263;48.172;11.484;2023-06-04T06:56:20;17.90;59.70
43665;DHT22;29263;48.172;11.484;2023-06-04T06:58:48;18.00;60.10
43665;DHT22;29263;48.172;11.484;2023-06-04T07:01:14;18.10;63.60
43665;DHT22;29263;48.172;11.484;2023-06-04T07:03:39;18.30;61.50
43665;DHT22;29263;48.172;11.484;2023-06-04T07:06:06;18.30;60.10
43665;DHT22;29263;48.172;11.484;2023-06-04T07:08:32;18.50;60.90
43665;DHT22;29263;48.172;11.484;2023-06-04T07:10:58;18.60;61.30
43665;DHT22;29263;48.172;11.484;2023-06-04T07:13:24;18.70;60.20
43665;DHT22;29263;48.172;11.484;2023-06-04T07:15:50;18.80;58.40
43665;DHT22;29263;48.172;11.484;2023-06-04T07:18:15;18.90;57.90
43665;DHT22;29263;48.172;11.484;2023-06-04T07:20:41;18.90;58.50
43665;DHT22;29263;48.172;11.484;2023-06-04T07:23:07;19.00;58.20
43665;DHT22;29263;48.172;11.484;2023-06-04T07:25:33;19.00;58.30
43665;DHT22;29263;48.172;11.484;2023-06-04T07:27:59;18.90;58.30
43665;DHT22;29263;48.172;11.484;2023-06-04T07:30:27;19.00;58.20
43665;DHT22;29263;48.172;11.484;2023-06-04T07:32:53;19.10;57.90
43665;DHT22;29263;48.172;11.484;2023-06-04T07:35:18;19.10;56.70
43665;DHT22;29263;48.172;11.484;2023-06-04T07:37:44;19.00;56.50
43665;DHT22;29263;48.172;11.484;2023-06-04T07:40:12;19.20;58.60
43665;DHT22;29263;48.172;11.484;2023-06-04T07:42:39;19.40;58.80
43665;DHT22;29263;48.172;11.484;2023-06-04T07:45:05;19.70;57.00
43665;DHT22;29263;48.172;11.484;2023-06-04T07:47:31;19.70;57.00
43665;DHT22;29263;48.172;11.484;2023-06-04T07:49:56;19.80;55.70
43665;DHT22;29263;48.172;11.484;2023-06-04T07:52:22;19.90;57.20
43665;DHT22;29263;48.172;11.484;2023-06-04T07:54:48;20.00;55.20
43665;DHT22;29263;48.172;11.484;2023-06-04T07:57:13;20.00;55.70
43665;DHT22;29263;48.172;11.484;2023-06-04T07:59:39;20.20;54.60
43665;DHT22;29263;48.172;11.484;2023-06-04T08:02:05;20.20;55.00
43665;DHT22;29263;48.172;11.484;2023-06-04T08:04:30;20.40;54.20
43665;DHT22;29263;48.172;11.484;2023-06-04T08:06:56;20.50;54.20
43665;DHT22;29263;48.172;11.484;2023-06-04T08:09:22;20.60;54.90
43665;DHT22;29263;48.172;11.484;2023-06-04T08:11:49;20.70;52.70
43665;DHT22;29263;48.172;11.484;2023-06-04T08:14:14;20.70;53.50
43665;DHT22;29263;48.172;11.484;2023-06-04T08:16:40;20.80;53.70
43665;DHT22;29263;48.172;11.484;2023-06-04T08:19:06;20.70;52.20
43665;DHT22;29263;48.172;11.484;2023-06-04T08:21:33;20.70;52.80
43665;DHT22;29263;48.172;11.484;2023-06-04T08:23:59;20.80;54.10
43665;DHT22;29263;48.172;11.484;2023-06-04T08:26:25;20.80;52.80
43665;DHT22;29263;48.172;11.484;2023-06-04T08:28:52;20.90;53.10
43665;DHT22;29263;48.172;11.484;2023-06-04T08:31:18;21.10;51.80
43665;DHT22;29263;48.172;11.484;2023-06-04T08:33:45;21.30;53.10
43665;DHT22;29263;48.172;11.484;2023-06-04T08:36:11;21.50;52.40
43665;DHT22;29263;48.172;11.484;2023-06-04T08:38:37;21.60;51.30
43665;DHT22;29263;48.172;11.484;2023-06-04T08:41:15;21.80;49.80
43665;DHT22;29263;48.172;11.484;2023-06-04T08:43:42;21.70;49.70
43665;DHT22;29263;48.172;11.484;2023-06-04T08:46:11;21.80;51.20
43665;DHT22;29263;48.172;11.484;2023-06-04T08:48:37;21.90;50.40
43665;DHT22;29263;48.172;11.484;2023-06-04T08:51:05;22.00;49.30
43665;DHT22;29263;48.172;11.484;2023-06-04T08:53:34;22.00;49.70
43665;DHT22;29263;48.172;11.484;2023-06-04T08:56:01;22.10;50.70
43665;DHT22;29263;48.172;11.484;2023-06-04T08:58:31;22.00;47.10
43665;DHT22;29263;48.172;11.484;2023-06-04T09:00:58;21.90;48.80
43665;DHT22;29263;48.172;11.484;2023-06-04T09:03:25;22.00;48.60
43665;DHT22;29263;48.172;11.484;2023-06-04T09:05:52;22.00;47.10
43665;DHT22;29263;48.172;11.484;2023-06-04T09:08:18;21.80;47.60
43665;DHT22;29263;48.172;11.484;2023-06-04T09:10:46;21.80;49.00
43665;DHT22;29263;48.172;11.484;2023-06-04T09:13:15;21.90;51.20
43665;DHT22;29263;48.172;11.484;2023-06-04T09:15:41;22.10;48.30
43665;DHT22;29263;48.172;11.484;2023-06-04T09:18:07;22.10;47.50
43665;DHT22;29263;48.172;11.484;2023-06-04T09:20:32;22.10;48.50
43665;DHT22;29263;48.172;11.484;2023-06-04T09:22:59;22.20;48.80
43665;DHT22;29263;48.172;11.484;2023-06-04T09:25:26;22.10;47.10
43665;DHT22;29263;48.172;11.484;2023-06-04T09:27:53;22.10;48.70
43665;DHT22;29263;48.172;11.484;2023-06-04T09:30:20;22.20;47.60
43665;DHT22;29263;48.172;11.484;2023-06-04T09:32:46;22.20;47.10
43665;DHT22;29263;48.172;11.484;2023-06-04T09:35:17;22.40;46.80
43665;DHT22;29263;48.172;11.484;2023-06-04T09:37:52;22.30;47.00
43665;DHT22;29263;48.172;11.484;2023-06-04T09:40:18;22.40;47.50
43665;DHT22;29263;48.172;11.484;2023-06-04T09:42:48;22.50;47.10
43665;DHT22;29263;48.172;11.484;2023-06-04T09:45:49;22.60;45.40
43665;DHT22;29263;48.172;11.484;2023-06-04T09:48:21;22.60;45.70
43665;DHT22;29263;48.172;11.484;2023-06-04T09:50:47;22.60;47.40
43665;DHT22;29263;48.172;11.484;2023-06-04T09:53:14;22.60;45.20
43665;DHT22;29263;48.172;11.484;2023-06-04T09:55:41;22.50;46.40
43665;DHT22;29263;48.172;11.484;2023-06-04T09:58:07;22.60;47.30
43665;DHT22;29263;48.172;11.484;2023-06-04T10:00:33;22.60;47.10
43665;DHT22;29263;48.172;11.484;2023-06-04T10:03:02;22.80;47.00
43665;DHT22;29263;48.172;11.484;2023-06-04T10:05:32;22.90;45.00
43665;DHT22;29263;48.172;11.484;2023-06-04T10:08:01;22.80;45.00
43665;DHT22;29263;48.172;11.484;2023-06-04T10:10:28;22.80;45.50
43665;DHT22;29263;48.172;11.484;2023-06-04T10:13:07;22.80;46.10
43665;DHT22;29263;48.172;11.484;2023-06-04T10:15:35;22.60;45.00
43665;DHT22;29263;48.172;11.484;2023-06-04T10:18:02;22.60;46.00
43665;DHT22;29263;48.172;11.484;2023-06-04T10:20:30;22.70;44.10
43665;DHT22;29263;48.172;11.484;2023-06-04T10:22:56;22.70;44.90
43665;DHT22;29263;48.172;11.484;2023-06-04T10:25:21;22.80;44.80
43665;DHT22;29263;48.172;11.484;2023-06-04T10:27:50;22.80;44.90
43665;DHT22;29263;48.172;11.484;2023-06-04T10:30:15;22.90;45.40
43665;DHT22;29263;48.172;11.484;2023-06-04T10:32:41;22.90;44.20
43665;DHT22;29263;48.172;11.484;2023-06-04T10:35:07;22.90;43.20
43665;DHT22;29263;48.172;11.484;2023-06-04T10:37:34;22.80;43.70
43665;DHT22;29263;48.172;11.484;2023-06-04T10:39:59;22.80;44.00
43665;DHT22;29263;48.172;11.484;2023-06-04T10:42:25;22.80;45.40
43665;DHT22;29263;48.172;11.484;2023-06-04T10:44:53;22.90;43.50
43665;DHT22;29263;48.172;11.484;2023-06-04T10:49:45;23.10;45.10
43665;DHT22;29263;48.172;11.484;2023-06-04T10:52:11;23.20;44.70
43665;DHT22;29263;48.172;11.484;2023-06-04T10:54:37;23.20;43.70
43665;DHT22;29263;48.172;11.484;2023-06-04T10:57:16;23.30;43.60
43665;DHT22;29263;48.172;11.484;2023-06-04T10:59:54;23.30;43.00
43665;DHT22;29263;48.172;11.484;2023-06-04T11:02:20;23.40;44.00
43665;DHT22;29263;48.172;11.484;2023-06-04T11:04:46;23.40;42.90
43665;DHT22;29263;48.172;11.484;2023-06-04T11:07:12;23.50;42.50
43665;DHT22;29263;48.172;11.484;2023-06-04T11:09:47;23.60;42.60
43665;DHT22;29263;48.172;11.484;2023-06-04T11:12:13;23.60;42.00
43665;DHT22;29263;48.172;11.484;2023-06-04T11:14:38;23.70;43.80
43665;DHT22;29263;48.172;11.484;2023-06-04T11:17:12;23.80;42.20
43665;DHT22;29263;48.172;11.484;2023-06-04T11:19:38;23.90;42.10
43665;DHT22;29263;48.172;11.484;2023-06-04T11:22:10;23.90;42.10
43665;DHT22;29263;48.172;11.484;2023-06-04T11:24:37;23.90;40.70
43665;DHT22;29263;48.172;11.484;2023-06-04T11:27:03;23.80;41.70
43665;DHT22;29263;48.172;11.484;2023-06-04T11:29:28;23.90;42.40
43665;DHT22;29263;48.172;11.484;2023-06-04T11:31:55;24.10;41.70
43665;DHT22;29263;48.172;11.484;2023-06-04T11:34:27;24.20;40.90
43665;DHT22;29263;48.172;11.484;2023-06-04T11:36:53;24.10;41.70
43665;DHT22;29263;48.172;11.484;2023-06-04T11:39:22;24.20;40.90
43665;DHT22;29263;48.172;11.484;2023-06-04T11:41:50;24.30;41.90
43665;DHT22;29263;48.172;11.484;2023-06-04T11:44:19;24.30;40.80
43665;DHT22;29263;48.172;11.484;2023-06-04T11:46:45;24.30;40.10
43665;DHT22;29263;48.172;11.484;2023-06-04T11:49:17;24.40;40.40
43665;DHT22;29263;48.172;11.484;2023-06-04T11:51:51;24.40;42.50
43665;DHT22;29263;48.172;11.484;2023-06-04T11:54:18;24.40;41.40
43665;DHT22;29263;48.172;11.484;2023-06-04T11:56:44;24.40;41.00
43665;DHT22;29263;48.172;11.484;2023-06-04T11:59:14;24.40;42.70
43665;DHT22;29263;48.172;11.484;2023-06-04T12:01:44;24.40;42.30
43665;DHT22;29263;48.172;11.484;2023-06-04T12:04:16;24.30;40.90
43665;DHT22;29263;48.172;11.484;2023-06-04T12:06:56;24.20;40.10
43665;DHT22;29263;48.172;11.484;2023-06-04T12:09:24;24.30;39.70
43665;DHT22;29263;48.172;11.484;2023-06-04T12:12:01;24.30;40.80
43665;DHT22;29263;48.172;11.484;2023-06-04T12:14:27;24.40;40.10
43665;DHT22;29263;48.172;11.484;2023-06-04T12:17:06;24.50;40.30
43665;DHT22;29263;48.172;11.484;2023-06-04T12:19:32;24.50;39.90
43665;DHT22;29263;48.172;11.484;2023-06-04T12:22:06;24.60;39.50
43665;DHT22;29263;48.172;11.484;2023-06-04T12:24:33;24.60;39.60
43665;DHT22;29263;48.172;11.484;2023-06-04T12:27:04;24.60;41.10
43665;DHT22;29263;48.172;11.484;2023-06-04T12:29:31;24.80;37.80
43665;DHT22;29263;48.172;11.484;2023-06-04T12:32:07;24.70;37.30
43665;DHT22;29263;48.172;11.484;2023-06-04T12:34:36;24.70;38.90
43665;DHT22;29263;48.172;11.484;2023-06-04T12:37:02;24.80;39.10
43665;DHT22;29263;48.172;11.484;2023-06-04T12:39:36;24.90;37.80
43665;DHT22;29263;48.172;11.484;2023-06-04T12:42:03;24.70;37.30
43665;DHT22;29263;48.172;11.484;2023-06-04T12:44:28;24.60;37.20
43665;DHT22;29263;48.172;11.484;2023-06-04T12:46:54;24.40;37.90
43665;DHT22;29263;48.172;11.484;2023-06-04T12:49:20;24.40;38.80
43665;DHT22;29263;48.172;11.484;2023-06-04T12:51:46;24.40;38.10
43665;DHT22;29263;48.172;11.484;2023-06-04T12:54:12;24.30;38.90
43665;DHT22;29263;48.172;11.484;2023-06-04T12:56:38;24.00;39.10
43665;DHT22;29263;48.172;11.484;2023-06-04T12:59:04;23.80;43.10
43665;DHT22;29263;48.172;11.484;2023-06-04T13:01:30;24.00;38.20
43665;DHT22;29263;48.172;11.484;2023-06-04T13:03:56;24.10;39.20
43665;DHT22;29263;48.172;11.484;2023-06-04T13:06:21;24.20;40.30
43665;DHT22;29263;48.172;11.484;2023-06-04T13:08:47;24.10;41.00
43665;DHT22;29263;48.172;11.484;2023-06-04T13:11:13;24.10;42.20
43665;DHT22;29263;48.172;11.484;2023-06-04T13:13:38;24.20;41.50
43665;DHT22;29263;48.172;11.484;2023-06-04T13:16:04;24.20;40.00
43665;DHT22;29263;48.172;11.484;2023-06-04T13:18:30;24.00;39.10
43665;DHT22;29263;48.172;11.484;2023-06-04T13:20:55;23.90;40.40
43665;DHT22;29263;48.172;11.484;2023-06-04T13:23:22;23.90;40.60
43665;DHT22;29263;48.172;11.484;2023-06-04T13:25:48;24.10;41.90
43665;DHT22;29263;48.172;11.484;2023-06-04T13:28:13;24.10;40.90
43665;DHT22;29263;48.172;11.484;2023-06-04T13:30:39;24.10;39.90
43665;DHT22;29263;48.172;11.484;2023-06-04T13:33:06;24.20;42.50
43665;DHT22;29263;48.172;11.484;2023-06-04T13:35:32;24.20;39.50
43665;DHT22;29263;48.172;11.484;2023-06-04T13:37:57;24.30;39.50
43665;DHT22;29263;48.172;11.484;2023-06-04T13:40:23;24.30;38.20
43665;DHT22;29263;48.172;11.484;2023-06-04T13:42:49;24.20;38.90
43665;DHT22;29263;48.172;11.484;2023-06-04T13:45:15;24.20;39.80
43665;DHT22;29263;48.172;11.484;2023-06-04T13:47:48;24.20;40.90
43665;DHT22;29263;48.172;11.484;2023-06-04T13:50:14;24.30;40.80
43665;DHT22;29263;48.172;11.484;2023-06-04T13:52:40;24.50;41.10
43665;DHT22;29263;48.172;11.484;2023-06-04T13:55:06;24.40;39.70
43665;DHT22;29263;48.172;11.484;2023-06-04T13:57:31;24.30;40.20
43665;DHT22;29263;48.172;11.484;2023-06-04T13:59:57;24.30;40.10
43665;DHT22;29263;48.172;11.484;2023-06-04T14:02:23;24.20;41.30
43665;DHT22;29263;48.172;11.484;2023-06-04T14:04:50;24.00;41.10
43665;DHT22;29263;48.172;11.484;2023-06-04T14:07:16;24.10;41.00
43665;DHT22;29263;48.172;11.484;2023-06-04T14:09:42;24.20;41.80
43665;DHT22;29263;48.172;11.484;2023-06-04T14:12:08;24.40;41.00
43665;DHT22;29263;48.172;11.484;2023-06-04T14:14:34;24.20;39.80
43665;DHT22;29263;48.172;11.484;2023-06-04T14:17:04;24.20;40.80
43665;DHT22;29263;48.172;11.484;2023-06-04T14:19:31;23.90;39.30
43665;DHT22;29263;48.172;11.484;2023-06-04T14:21:57;23.70;40.00
43665;DHT22;29263;48.172;11.484;2023-06-04T14:24:23;23.60;41.50
43665;DHT22;29263;48.172;11.484;2023-06-04T14:26:48;23.60;41.80
43665;DHT22;29263;48.172;11.484;2023-06-04T14:29:14;23.60;42.20
43665;DHT22;29263;48.172;11.484;2023-06-04T14:31:40;23.50;41.90
43665;DHT22;29263;48.172;11.484;2023-06-04T14:34:05;23.50;42.00
43665;DHT22;29263;48.172;11.484;2023-06-04T14:36:34;23.40;42.30
43665;DHT22;29263;48.172;11.484;2023-06-04T14:39:00;23.40;42.10
43665;DHT22;29263;48.172;11.484;2023-06-04T14:41:25;23.40;42.10
43665;DHT22;29263;48.172;11.484;2023-06-04T14:43:52;23.40;42.30
43665;DHT22;29263;48.172;11.484;2023-06-04T14:46:18;23.40;41.30
43665;DHT22;29263;48.172;11.484;2023-06-04T14:48:43;23.40;43.30
43665;DHT22;29263;48.172;11.484;2023-06-04T14:51:10;23.60;41.60
43665;DHT22;29263;48.172;11.484;2023-06-04T14:53:35;23.60;41.10
43665;DHT22;29263;48.172;11.484;2023-06-04T14:56:04;23.70;43.00
43665;DHT22;29263;48.172;11.484;2023-06-04T14:58:30;23.70;40.80
43665;DHT22;29263;48.172;11.484;2023-06-04T15:00:56;23.70;41.50
43665;DHT22;29263;48.172;11.484;2023-06-04T15:03:25;23.70;41.50
43665;DHT22;29263;48.172;11.484;2023-06-04T15:05:51;23.70;41.50
43665;DHT22;29263;48.172;11.484;2023-06-04T15:08:17;23.70;40.90
43665;DHT22;29263;48.172;11.484;2023-06-04T15:10:43;23.60;42.40
43665;DHT22;29263;48.172;11.484;2023-06-04T15:13:08;23.50;40.60
43665;DHT22;29263;48.172;11.484;2023-06-04T15:15:34;23.40;41.60
43665;DHT22;29263;48.172;11.484;2023-06-04T15:18:00;23.30;42.00
43665;DHT22;29263;48.172;11.484;2023-06-04T15:20:26;23.30;43.90